createdAt,value
2024-03-02T00:00:14.427Z,98846.34
2024-03-02T00:02:48.000Z,98836.38
2024-03-02T00:05:16.311Z,98831.44
2024-03-02T00:07:44.120Z,98833.25
2024-03-02T00:10:12.515Z,98832.06
2024-03-02T00:12:40.272Z,98831.75
2024-03-02T00:15:44.561Z,98826.66
2024-03-02T00:18:13.666Z,98823.00
2024-03-02T00:20:41.424Z,98824.19
2024-03-02T00:23:09.787Z,98832.09
2024-03-02T00:25:50.407Z,98825.81
2024-03-02T00:28:21.237Z,98824.84
2024-03-02T00:31:04.622Z,98826.66
2024-03-02T00:33:38.412Z,98825.47
2024-03-02T00:36:06.344Z,98832.41
2024-03-02T00:38:33.403Z,98832.41
2024-03-02T00:41:04.965Z,98825.31
2024-03-02T00:43:47.477Z,98825.31
2024-03-02T00:46:19.929Z,98826.78
2024-03-02T00:48:52.591Z,98842.66
2024-03-02T00:51:19.267Z,98831.06
2024-03-02T00:53:46.126Z,98836.19
2024-03-02T00:56:18.160Z,98827.59
2024-03-02T00:58:44.744Z,98832.53
2024-03-02T01:01:11.382Z,98831.72
2024-03-02T01:03:38.486Z,98833.34
2024-03-02T01:06:05.584Z,98845.59
2024-03-02T01:08:31.994Z,98833.19
2024-03-02T01:10:58.453Z,98827.09
2024-03-02T01:13:25.016Z,98829.72
2024-03-02T01:15:51.752Z,98826.91
2024-03-02T01:18:18.300Z,98819.16
2024-03-02T01:20:44.704Z,98815.84
2024-03-02T01:23:11.143Z,98817.50
2024-03-02T01:25:37.646Z,98816.88
2024-03-02T01:28:05.101Z,98817.75
2024-03-02T01:30:31.851Z,98820.44
2024-03-02T01:33:00.245Z,98829.38
2024-03-02T01:35:27.762Z,98823.59
2024-03-02T01:37:54.727Z,98825.44
2024-03-02T01:40:21.514Z,98817.84
2024-03-02T01:42:48.040Z,98823.94
2024-03-02T01:45:14.591Z,98825.44
2024-03-02T01:47:41.196Z,98822.78
2024-03-02T01:50:08.725Z,98821.31
2024-03-02T01:52:35.161Z,98826.44
2024-03-02T01:55:01.974Z,98821.16
2024-03-02T01:57:28.499Z,98814.56
2024-03-02T01:59:55.091Z,98816.19
2024-03-02T02:02:21.641Z,98821.50
2024-03-02T02:04:48.179Z,98812.75
2024-03-02T02:07:15.525Z,98804.00
2024-03-02T02:09:45.368Z,98811.91
2024-03-02T02:12:12.270Z,98810.91
2024-03-02T02:14:40.226Z,98810.91
2024-03-02T02:17:06.652Z,98804.25
2024-03-02T02:19:33.062Z,98799.63
2024-03-02T02:21:59.573Z,98795.97
2024-03-02T02:24:26.103Z,98801.63
2024-03-02T02:26:52.534Z,98802.63
2024-03-02T02:29:18.944Z,98810.56
2024-03-02T02:31:45.368Z,98801.16
2024-03-02T02:34:11.822Z,98802.97
2024-03-02T02:36:40.292Z,98809.28
2024-03-02T02:39:08.932Z,98804.00
2024-03-02T02:41:35.361Z,98806.63
2024-03-02T02:44:01.765Z,98815.53
2024-03-02T02:46:28.191Z,98816.56
2024-03-02T02:48:54.929Z,98806.09
2024-03-02T02:51:21.446Z,98797.28
2024-03-02T02:53:47.900Z,98804.94
2024-03-02T02:56:14.348Z,98796.69
2024-03-02T02:58:42.469Z,98800.34
2024-03-02T03:01:09.020Z,98811.06
2024-03-02T03:03:35.520Z,98805.97
2024-03-02T03:06:01.980Z,98804.31
2024-03-02T03:08:28.408Z,98801.66
2024-03-02T03:10:54.923Z,98792.44
2024-03-02T03:13:21.383Z,98799.38
2024-03-02T03:15:47.821Z,98794.09
2024-03-02T03:18:14.341Z,98797.72
2024-03-02T03:20:40.828Z,98802.00
2024-03-02T03:23:07.293Z,98804.66
2024-03-02T03:25:33.720Z,98802.00
2024-03-02T03:28:00.188Z,98794.09
2024-03-02T03:30:26.840Z,98797.38
2024-03-02T03:32:53.261Z,98798.84
2024-03-02T03:35:19.715Z,98795.75
2024-03-02T03:37:46.159Z,98792.44
2024-03-02T03:40:12.557Z,98797.72
2024-03-02T03:42:39.386Z,98794.44
2024-03-02T03:45:09.458Z,98791.16
2024-03-02T03:47:36.044Z,98789.50
2024-03-02T03:50:05.646Z,98791.16
2024-03-02T03:52:32.107Z,98783.22
2024-03-02T03:54:58.619Z,98784.22
2024-03-02T03:57:25.186Z,98773.81
2024-03-02T03:59:51.786Z,98782.56
2024-03-02T04:02:18.199Z,98784.56
2024-03-02T04:04:44.837Z,98787.19
2024-03-02T04:07:11.455Z,98787.19
2024-03-02T04:09:37.976Z,98796.13
2024-03-02T04:12:04.677Z,98802.44
2024-03-02T04:14:31.129Z,98806.88
2024-03-02T04:16:57.522Z,98807.72
2024-03-02T04:19:24.253Z,98802.59
2024-03-02T04:21:50.686Z,98805.06
2024-03-02T04:24:17.132Z,98806.72
2024-03-02T04:26:43.564Z,98813.84
2024-03-02T04:29:10.001Z,98813.00
2024-03-02T04:31:36.473Z,98805.25
2024-03-02T04:34:03.000Z,98809.72
2024-03-02T04:36:29.484Z,98802.44
2024-03-02T04:38:56.082Z,98815.31
2024-03-02T04:41:22.493Z,98812.66
2024-03-02T04:43:48.921Z,98812.31
2024-03-02T04:46:15.340Z,98825.34
2024-03-02T04:48:41.816Z,98817.94
2024-03-02T04:51:08.278Z,98823.25
2024-03-02T04:53:34.676Z,98829.50
2024-03-02T04:56:21.069Z,98834.78
2024-03-02T04:58:47.872Z,98845.38
2024-03-02T05:01:14.420Z,98847.03
2024-03-02T05:03:40.960Z,98847.84
2024-03-02T05:06:07.414Z,98849.69
2024-03-02T05:08:35.043Z,98852.94
2024-03-02T05:11:21.515Z,98852.94
2024-03-02T05:13:47.949Z,98851.97
2024-03-02T05:16:14.369Z,98865.19
2024-03-02T05:18:40.970Z,98865.19
2024-03-02T05:21:07.420Z,98861.53
2024-03-02T05:23:34.340Z,98862.56
2024-03-02T05:26:00.757Z,98866.16
2024-03-02T05:28:27.246Z,98867.19
2024-03-02T05:30:53.687Z,98870.81
2024-03-02T05:33:23.561Z,98866.34
2024-03-02T05:35:52.836Z,98875.25
2024-03-02T05:38:19.395Z,98880.41
2024-03-02T05:40:45.982Z,98876.13
2024-03-02T05:43:12.835Z,98877.75
2024-03-02T05:45:40.502Z,98882.22
2024-03-02T05:48:10.413Z,98892.63
2024-03-02T05:50:36.935Z,98892.44
2024-03-02T05:53:03.361Z,98894.91
2024-03-02T05:55:29.762Z,98906.50
2024-03-02T05:58:08.300Z,98906.69
2024-03-02T06:00:34.880Z,98909.13
2024-03-02T06:03:01.413Z,98907.75
2024-03-02T06:05:28.146Z,98913.13
2024-03-02T06:07:54.567Z,98912.97
2024-03-02T06:10:21.904Z,98919.66
2024-03-02T06:12:48.434Z,98919.00
2024-03-02T06:15:14.977Z,98930.94
2024-03-02T06:17:41.406Z,98932.25
2024-03-02T06:20:09.598Z,98927.97
2024-03-02T06:22:36.289Z,98934.22
2024-03-02T06:25:02.788Z,98930.75
2024-03-02T06:27:29.323Z,98929.94
2024-03-02T06:29:55.991Z,98928.31
2024-03-02T06:32:22.419Z,98926.63
2024-03-02T06:34:48.832Z,98930.47
2024-03-02T06:37:17.026Z,98929.34
2024-03-02T06:39:44.338Z,98929.00
2024-03-02T06:42:11.082Z,98941.91
2024-03-02T06:44:37.517Z,98936.59
2024-03-02T06:47:03.985Z,98945.34
2024-03-02T06:49:30.408Z,98944.53
2024-03-02T06:51:56.877Z,98944.69
2024-03-02T06:54:23.429Z,98959.41
2024-03-02T06:56:50.051Z,98957.41
2024-03-02T06:59:16.510Z,98972.63
2024-03-02T07:01:44.549Z,98970.63
2024-03-02T07:04:11.018Z,98966.97
2024-03-02T07:06:37.435Z,98971.44
2024-03-02T07:09:04.287Z,98976.59
2024-03-02T07:11:30.750Z,98970.28
2024-03-02T07:13:57.270Z,98981.69
2024-03-02T07:16:30.875Z,98972.59
2024-03-02T07:18:57.984Z,98971.94
2024-03-02T07:21:24.674Z,98976.25
2024-03-02T07:23:51.326Z,98978.69
2024-03-02T07:28:50.117Z,98980.53
2024-03-02T07:31:16.604Z,98979.53
2024-03-02T07:33:45.228Z,98982.00
2024-03-02T07:36:11.959Z,98980.84
2024-03-02T07:38:38.425Z,98983.50
2024-03-02T07:41:05.654Z,98984.47
2024-03-02T07:43:34.254Z,98988.78
2024-03-02T07:46:00.736Z,98997.06
2024-03-02T07:48:28.117Z,98998.69
2024-03-02T07:50:54.579Z,99001.34
2024-03-02T07:53:20.990Z,99004.81
2024-03-02T07:55:47.389Z,99007.94
2024-03-02T07:58:14.199Z,99014.75
2024-03-02T08:00:41.575Z,99013.56
2024-03-02T08:03:08.378Z,99017.88
2024-03-02T08:05:34.847Z,99022.16
2024-03-02T08:08:01.287Z,99016.53
2024-03-02T08:10:27.675Z,99027.09
2024-03-02T08:12:54.139Z,99016.84
2024-03-02T08:15:20.666Z,99016.84
2024-03-02T08:17:50.567Z,99025.44
2024-03-02T08:20:17.105Z,99022.47
2024-03-02T08:22:43.719Z,99033.34
2024-03-02T08:25:10.765Z,99025.41
2024-03-02T08:27:37.540Z,99029.38
2024-03-02T08:30:07.618Z,99033.66
2024-03-02T08:32:34.320Z,99029.03
2024-03-02T08:35:00.912Z,99035.66
2024-03-02T08:37:27.782Z,99037.28
2024-03-02T08:39:54.433Z,99047.56
2024-03-02T08:42:20.997Z,99047.22
2024-03-02T08:44:47.626Z,99050.50
2024-03-02T08:47:14.524Z,99053.16
2024-03-02T08:49:40.965Z,99052.16
2024-03-02T08:52:07.428Z,99039.56
2024-03-02T08:54:35.208Z,99051.47
2024-03-02T08:57:01.693Z,99040.56
2024-03-02T08:59:28.948Z,99033.91
2024-03-02T09:01:55.662Z,99043.66
2024-03-02T09:04:25.327Z,99037.66
2024-03-02T09:06:53.439Z,99030.16
2024-03-02T09:09:19.907Z,99034.06
2024-03-02T09:11:47.515Z,99034.63
2024-03-02T09:14:16.025Z,99039.22
2024-03-02T09:16:43.036Z,99035.34
2024-03-02T09:19:10.732Z,99045.72
2024-03-02T09:21:37.300Z,99050.03
2024-03-02T09:24:04.704Z,99045.72
2024-03-02T09:26:31.176Z,99045.66
2024-03-02T09:28:57.607Z,99045.97
2024-03-02T09:31:24.024Z,99044.78
2024-03-02T09:33:50.589Z,99054.69
2024-03-02T09:36:21.740Z,99059.16
2024-03-02T09:38:48.241Z,99062.06
2024-03-02T09:41:15.970Z,99063.38
2024-03-02T09:43:42.510Z,99061.00
2024-03-02T09:46:12.281Z,99061.38
2024-03-02T09:48:39.365Z,99061.50
2024-03-02T09:51:06.738Z,99067.97
2024-03-02T09:53:34.739Z,99069.97
2024-03-02T09:56:01.806Z,99057.88
2024-03-02T09:58:28.286Z,99066.66
2024-03-02T10:00:54.939Z,99061.00
2024-03-02T10:03:23.467Z,99063.38
2024-03-02T10:05:49.927Z,99057.59
2024-03-02T10:08:16.451Z,99052.28
2024-03-02T10:10:45.520Z,99050.13
2024-03-02T10:13:13.433Z,99044.00
2024-03-02T10:15:42.168Z,99047.47
2024-03-02T10:18:13.483Z,99047.84
2024-03-02T10:20:41.238Z,99041.88
2024-03-02T10:23:18.486Z,99045.72
2024-03-02T10:25:52.068Z,99040.88
2024-03-02T10:28:24.400Z,99027.25
2024-03-02T10:30:52.527Z,99031.66
2024-03-02T10:33:19.083Z,99032.13
2024-03-02T10:35:45.770Z,99038.25
2024-03-02T10:38:12.728Z,99024.75
2024-03-02T10:40:39.309Z,99021.03
2024-03-02T10:43:07.143Z,99032.19
2024-03-02T10:45:34.188Z,99022.50
2024-03-02T10:48:03.198Z,99014.44
2024-03-02T10:50:30.166Z,99004.78
2024-03-02T10:52:56.561Z,99010.63
2024-03-02T10:55:23.146Z,99005.59
2024-03-02T10:57:53.368Z,99003.66
2024-03-02T11:00:25.852Z,99007.78
2024-03-02T11:02:57.186Z,99010.13
2024-03-02T11:05:28.932Z,99000.38
2024-03-02T11:08:02.194Z,98999.84
2024-03-02T11:10:37.751Z,98994.81
2024-03-02T11:13:11.074Z,98997.22
2024-03-02T11:15:38.523Z,98996.22
2024-03-02T11:18:09.795Z,98999.75
2024-03-02T11:20:39.782Z,99002.47
2024-03-02T11:23:08.001Z,98995.97
2024-03-02T11:25:34.753Z,99009.13
2024-03-02T11:28:03.725Z,99007.13
2024-03-02T11:30:33.605Z,99008.69
2024-03-02T11:33:11.305Z,99002.28
2024-03-02T11:35:43.935Z,98997.53
2024-03-02T11:38:10.745Z,99003.28
2024-03-02T11:40:37.315Z,98993.13
2024-03-02T11:43:06.356Z,99000.50
2024-03-02T11:45:34.716Z,98998.94
2024-03-02T11:48:01.879Z,98995.56
2024-03-02T11:50:34.466Z,98985.09
2024-03-02T11:53:01.150Z,98983.41
2024-03-02T11:55:28.063Z,98980.19
2024-03-02T11:57:54.532Z,98986.97
2024-03-02T12:00:21.551Z,98983.94
2024-03-02T12:03:01.802Z,98984.28
2024-03-02T12:05:28.859Z,98986.34
2024-03-02T12:08:03.093Z,98983.69
2024-03-02T12:10:30.461Z,98982.66
2024-03-02T12:13:00.171Z,98987.97
2024-03-02T12:15:31.835Z,98982.03
2024-03-02T12:18:02.245Z,98978.09
2024-03-02T12:20:30.594Z,98985.84
2024-03-02T12:23:00.905Z,98981.53
2024-03-02T12:25:38.595Z,98983.31
2024-03-02T12:28:08.268Z,98983.69
2024-03-02T12:30:36.874Z,98976.91
2024-03-02T12:33:03.635Z,98978.50
2024-03-02T12:35:33.035Z,98972.16
2024-03-02T12:37:59.615Z,98973.81
2024-03-02T12:40:35.120Z,98976.09
2024-03-02T12:43:02.068Z,98964.00
2024-03-02T12:45:28.707Z,98970.97
2024-03-02T12:47:55.310Z,98963.25
2024-03-02T12:50:22.647Z,98959.66
2024-03-02T12:52:56.103Z,98960.13
2024-03-02T12:55:23.981Z,98965.31
2024-03-02T12:57:52.457Z,98956.38
2024-03-02T13:00:20.662Z,98954.59
2024-03-02T13:02:48.620Z,98948.47
2024-03-02T13:05:15.147Z,98950.09
2024-03-02T13:07:42.101Z,98946.81
2024-03-02T13:10:11.425Z,98953.00
2024-03-02T13:12:38.304Z,98955.66
2024-03-02T13:15:06.534Z,98955.88
2024-03-02T13:17:38.071Z,98951.81
2024-03-02T13:20:09.474Z,98949.28
2024-03-02T13:22:36.408Z,98953.78
2024-03-02T13:25:05.361Z,98960.72
2024-03-02T13:27:35.823Z,98963.22
2024-03-02T13:30:10.042Z,98950.06
2024-03-02T13:32:36.586Z,98952.28
2024-03-02T13:35:04.149Z,98954.16
2024-03-02T13:37:30.607Z,98957.81
2024-03-02T13:39:57.058Z,98957.78
2024-03-02T13:42:23.759Z,98959.50
2024-03-02T13:44:52.251Z,98963.13
2024-03-02T13:47:18.890Z,98966.00
2024-03-02T13:49:47.333Z,98964.72
2024-03-02T13:52:18.405Z,98970.91
2024-03-02T13:54:46.917Z,98962.72
2024-03-02T13:57:18.071Z,98971.13
2024-03-02T13:59:45.015Z,98969.75
2024-03-02T14:02:12.974Z,98961.50
2024-03-02T14:04:42.098Z,98968.25
2024-03-02T14:07:09.252Z,98960.19
2024-03-02T14:09:36.255Z,98958.28
2024-03-02T14:12:03.497Z,98968.75
2024-03-02T14:14:29.974Z,98960.72
2024-03-02T14:17:06.703Z,98953.97
2024-03-02T14:19:33.425Z,98959.72
2024-03-02T14:22:00.318Z,98961.28
2024-03-02T14:24:27.610Z,98969.38
2024-03-02T14:26:58.413Z,98963.06
2024-03-02T14:29:29.956Z,98959.13
2024-03-02T14:31:56.459Z,98963.38
2024-03-02T14:34:23.372Z,98966.63
2024-03-02T14:36:49.989Z,98968.91
2024-03-02T14:39:16.442Z,98974.44
2024-03-02T14:41:42.860Z,98971.66
2024-03-02T14:44:09.286Z,98965.09
2024-03-02T14:46:35.984Z,98963.97
2024-03-02T14:49:02.747Z,98961.75
2024-03-02T14:51:31.206Z,98959.63
2024-03-02T14:53:57.659Z,98957.31
2024-03-02T14:56:24.086Z,98955.34
2024-03-02T14:58:52.114Z,98951.44
2024-03-02T15:01:19.048Z,98952.44
2024-03-02T15:03:45.634Z,98944.22
2024-03-02T15:06:12.113Z,98939.28
2024-03-02T15:08:38.552Z,98931.94
2024-03-02T15:11:05.135Z,98936.97
2024-03-02T15:13:31.775Z,98938.22
2024-03-02T15:15:58.307Z,98937.94
2024-03-02T15:18:25.266Z,98942.44
2024-03-02T15:20:51.895Z,98940.41
2024-03-02T15:23:18.354Z,98939.13
2024-03-02T15:25:44.810Z,98935.47
2024-03-02T15:28:11.289Z,98938.25
2024-03-02T15:30:37.804Z,98942.72
2024-03-02T15:33:04.806Z,98940.28
2024-03-02T15:35:31.270Z,98939.34
2024-03-02T15:37:57.694Z,98938.75
2024-03-02T15:40:24.144Z,98938.09
2024-03-02T15:42:50.667Z,98947.09
2024-03-02T15:45:17.782Z,98941.31
2024-03-02T15:47:44.633Z,98935.53
2024-03-02T15:50:11.091Z,98930.59
2024-03-02T15:52:37.606Z,98934.34
2024-03-02T15:55:06.736Z,98938.19
2024-03-02T15:57:34.409Z,98930.38
2024-03-02T16:00:00.820Z,98937.31
2024-03-02T16:02:27.252Z,98925.69
2024-03-02T16:04:53.729Z,98919.56
2024-03-02T16:07:20.219Z,98926.41
2024-03-02T16:09:46.701Z,98929.72
2024-03-02T16:12:13.514Z,98925.53
2024-03-02T16:14:39.938Z,98922.19
2024-03-02T16:17:07.425Z,98916.56
2024-03-02T16:19:35.377Z,98922.88
2024-03-02T16:22:01.971Z,98924.94
2024-03-02T16:24:28.599Z,98931.91
2024-03-02T16:26:55.121Z,98924.56
2024-03-02T16:29:21.537Z,98923.31
2024-03-02T16:31:47.931Z,98926.63
2024-03-02T16:34:14.491Z,98931.66
2024-03-02T16:36:41.917Z,98930.38
2024-03-02T16:39:09.952Z,98932.38
2024-03-02T16:41:36.657Z,98928.72
2024-03-02T16:44:06.673Z,98932.28
2024-03-02T16:46:33.497Z,98941.16
2024-03-02T16:49:00.095Z,98938.69
2024-03-02T16:51:26.615Z,98937.41
2024-03-02T16:53:53.031Z,98941.06
2024-03-02T16:56:19.497Z,98935.78
2024-03-02T16:58:45.908Z,98934.09
2024-03-02T17:01:12.408Z,98940.72
2024-03-02T17:03:38.899Z,98935.41
2024-03-02T17:06:05.554Z,98937.41
2024-03-02T17:08:32.019Z,98937.78
2024-03-02T17:10:58.579Z,98939.97
2024-03-02T17:13:25.328Z,98939.41
2024-03-02T17:15:51.784Z,98943.44
2024-03-02T17:18:18.477Z,98948.38
2024-03-02T17:20:45.105Z,98949.78
2024-03-02T17:23:11.586Z,98954.44
2024-03-02T17:25:38.099Z,98946.84
2024-03-02T17:28:19.830Z,98954.78
2024-03-02T17:30:46.261Z,98951.13
2024-03-02T17:33:12.763Z,98951.31
2024-03-02T17:35:39.236Z,98954.78
2024-03-02T17:38:05.648Z,98949.84
2024-03-02T17:40:32.769Z,98943.28
2024-03-02T17:42:59.215Z,98952.41
2024-03-02T17:45:25.838Z,98947.13
2024-03-02T17:47:52.296Z,98952.50
2024-03-02T17:50:18.714Z,98951.03
2024-03-02T17:52:45.773Z,98946.25
2024-03-02T17:55:12.324Z,98940.03
2024-03-02T17:57:38.836Z,98950.19
2024-03-02T18:00:06.492Z,98940.31
2024-03-02T18:02:34.631Z,98939.00
2024-03-02T18:05:01.039Z,98936.00
2024-03-02T18:07:27.480Z,98936.34
2024-03-02T18:09:53.979Z,98935.44
2024-03-02T18:12:20.522Z,98930.50
2024-03-02T18:14:47.006Z,98926.72
2024-03-02T18:17:13.722Z,98930.56
2024-03-02T18:19:40.189Z,98933.56
2024-03-02T18:22:06.823Z,98938.56
2024-03-02T18:24:36.491Z,98932.66
2024-03-02T18:27:04.530Z,98933.00
2024-03-02T18:29:30.958Z,98923.75
2024-03-02T18:31:58.793Z,98928.59
2024-03-02T18:34:25.290Z,98924.47
2024-03-02T18:36:52.304Z,98913.41
2024-03-02T18:39:19.381Z,98926.84
2024-03-02T18:41:45.800Z,98916.56
2024-03-02T18:44:12.233Z,98912.28
2024-03-02T18:46:38.683Z,98918.59
2024-03-02T18:49:05.145Z,98919.75
2024-03-02T18:51:31.668Z,98920.94
2024-03-02T18:53:58.097Z,98917.63
2024-03-02T18:56:24.564Z,98915.84
2024-03-02T18:58:51.022Z,98910.69
2024-03-02T19:01:17.503Z,98914.06
2024-03-02T19:03:44.362Z,98911.75
2024-03-02T19:06:17.375Z,98912.13
2024-03-02T19:08:44.229Z,98907.34
2024-03-02T19:11:15.224Z,98913.78
2024-03-02T19:13:42.582Z,98910.34
2024-03-02T19:16:13.516Z,98899.41
2024-03-02T19:18:41.011Z,98911.16
2024-03-02T19:21:08.266Z,98906.22
2024-03-02T19:23:40.399Z,98901.28
2024-03-02T19:26:12.584Z,98908.59
2024-03-02T19:28:39.011Z,98905.28
2024-03-02T19:31:05.487Z,98902.94
2024-03-02T19:33:32.005Z,98904.09
2024-03-02T19:35:58.483Z,98903.63
2024-03-02T19:38:26.308Z,98898.34
2024-03-02T19:40:53.001Z,98890.56
2024-03-02T19:43:19.550Z,98892.91
2024-03-02T19:45:46.051Z,98889.78
2024-03-02T19:48:12.686Z,98889.97
2024-03-02T19:50:40.903Z,98887.34
2024-03-02T19:53:07.327Z,98881.50
2024-03-02T19:55:33.790Z,98887.81
2024-03-02T19:58:00.277Z,98883.53
2024-03-02T20:00:26.717Z,98883.19
2024-03-02T20:02:53.160Z,98880.22
2024-03-02T20:05:19.574Z,98879.41
2024-03-02T20:07:46.101Z,98876.09
2024-03-02T20:10:13.877Z,98869.97
2024-03-02T20:12:40.510Z,98874.44
2024-03-02T20:15:07.518Z,98866.66
2024-03-02T20:17:34.031Z,98869.28
2024-03-02T20:20:00.507Z,98868.63
2024-03-02T20:22:26.921Z,98867.47
2024-03-02T20:24:53.367Z,98857.72
2024-03-02T20:27:20.613Z,98862.19
2024-03-02T20:29:47.021Z,98851.78
2024-03-02T20:32:13.574Z,98849.03
2024-03-02T20:34:39.987Z,98854.44
2024-03-02T20:37:06.420Z,98851.13
2024-03-02T20:39:33.078Z,98850.66
2024-03-02T20:41:59.557Z,98848.53
2024-03-02T20:44:27.123Z,98840.31
2024-03-02T20:46:54.289Z,98841.63
2024-03-02T20:49:21.139Z,98846.31
2024-03-02T20:51:47.778Z,98845.66
2024-03-02T20:54:14.236Z,98843.97
2024-03-02T20:56:43.744Z,98838.06
2024-03-02T20:59:10.180Z,98842.69
2024-03-02T21:01:37.203Z,98837.94
2024-03-02T21:04:03.967Z,98831.16
2024-03-02T21:06:30.731Z,98835.13
2024-03-02T21:08:57.268Z,98833.66
2024-03-02T21:11:23.835Z,98828.22
2024-03-02T21:13:50.482Z,98841.13
2024-03-02T21:16:17.708Z,98839.78
2024-03-02T21:18:44.607Z,98831.50
2024-03-02T21:21:14.306Z,98835.19
2024-03-02T21:23:40.729Z,98828.25
2024-03-02T21:26:07.126Z,98827.94
2024-03-02T21:28:33.556Z,98830.56
2024-03-02T21:31:00.212Z,98832.59
2024-03-02T21:33:29.714Z,98827.31
2024-03-02T21:35:56.065Z,98829.75
2024-03-02T21:38:22.528Z,98829.94
2024-03-02T21:40:50.019Z,98832.59
2024-03-02T21:43:16.597Z,98836.53
2024-03-02T21:45:43.760Z,98829.97
2024-03-02T21:48:10.269Z,98828.50
2024-03-02T21:50:36.735Z,98835.75
2024-03-02T21:53:04.702Z,98827.00
2024-03-02T21:55:31.123Z,98827.34
2024-03-02T21:57:58.079Z,98825.38
2024-03-02T22:00:25.240Z,98826.53
2024-03-02T22:02:51.660Z,98825.38
2024-03-02T22:05:18.131Z,98829.84
2024-03-02T22:07:44.545Z,98827.34
2024-03-02T22:10:11.021Z,98819.94
2024-03-02T22:12:37.460Z,98818.28
2024-03-02T22:15:04.230Z,98813.66
2024-03-02T22:17:30.664Z,98819.09
2024-03-02T22:19:57.487Z,98811.38
2024-03-02T22:22:24.039Z,98804.91
2024-03-02T22:24:50.482Z,98808.53
2024-03-02T22:27:17.057Z,98806.91
2024-03-02T22:29:43.477Z,98810.88
2024-03-02T22:32:09.872Z,98810.88
2024-03-02T22:34:36.262Z,98810.06
2024-03-02T22:37:02.734Z,98811.88
2024-03-02T22:39:29.240Z,98811.88
2024-03-02T22:41:56.121Z,98812.53
2024-03-02T22:44:22.699Z,98807.91
2024-03-02T22:46:49.094Z,98810.53
2024-03-02T22:49:15.616Z,98804.94
2024-03-02T22:51:42.251Z,98814.84
2024-03-02T22:54:08.725Z,98813.88
2024-03-02T22:56:35.130Z,98809.38
2024-03-02T22:59:02.061Z,98807.44
2024-03-02T23:01:28.611Z,98809.91
2024-03-02T23:03:55.169Z,98806.78
2024-03-02T23:06:21.630Z,98808.13
2024-03-02T23:08:48.107Z,98806.66
2024-03-02T23:11:14.608Z,98805.66
2024-03-02T23:13:41.116Z,98802.03
2024-03-02T23:16:07.622Z,98790.97
2024-03-02T23:18:34.157Z,98795.44
2024-03-02T23:21:00.599Z,98793.78
2024-03-02T23:23:27.024Z,98794.13
2024-03-02T23:25:53.429Z,98790.66
2024-03-02T23:28:19.936Z,98792.47
2024-03-02T23:30:47.056Z,98790.66
2024-03-02T23:33:13.554Z,98785.19
2024-03-02T23:35:39.976Z,98782.56
2024-03-02T23:38:06.751Z,98774.28
2024-03-02T23:40:51.566Z,98783.56
2024-03-02T23:43:18.102Z,98774.81
2024-03-02T23:45:44.609Z,98767.06
2024-03-02T23:48:11.611Z,98766.75
2024-03-02T23:50:38.096Z,98771.19
2024-03-02T23:53:04.820Z,98762.78
2024-03-02T23:55:42.747Z,98768.22
2024-03-02T23:58:17.659Z,98764.47
